createdAt,value
2023-02-06T00:00:50.000Z,209.57
2023-02-06T00:03:16.608Z,207.13
2023-02-06T00:05:43.279Z,212.98
2023-02-06T00:08:09.803Z,210.18
2023-02-06T00:10:36.326Z,212.75
2023-02-06T00:13:02.827Z,209.80
2023-02-06T00:15:29.361Z,212.10
2023-02-06T00:17:56.240Z,217.10
2023-02-06T00:20:22.752Z,212.15
2023-02-06T00:22:49.239Z,211.27
2023-02-06T00:25:15.802Z,210.32
2023-02-06T00:27:42.356Z,209.90
2023-02-06T00:30:09.141Z,208.40
2023-02-06T00:32:35.801Z,211.00
2023-02-06T00:35:02.326Z,214.20
2023-02-06T00:37:28.802Z,215.38
2023-02-06T00:39:55.298Z,211.20
2023-02-06T00:42:21.805Z,216.68
2023-02-06T00:44:48.326Z,216.60
2023-02-06T00:47:15.145Z,216.73
2023-02-06T00:49:41.918Z,219.32
2023-02-06T00:52:08.511Z,224.32
2023-02-06T00:54:35.043Z,217.13
2023-02-06T00:57:01.548Z,218.25
2023-02-06T00:59:28.074Z,213.75
2023-02-06T01:01:55.239Z,217.48
2023-02-06T01:04:21.707Z,217.40
2023-02-06T01:06:48.257Z,216.25
2023-02-06T01:09:14.842Z,213.35
2023-02-06T01:11:41.333Z,218.93
2023-02-06T01:14:07.859Z,216.13
2023-02-06T01:16:34.354Z,213.48
2023-02-06T01:19:01.185Z,220.05
2023-02-06T01:21:27.746Z,219.00
2023-02-06T01:23:55.019Z,219.07
2023-02-06T01:26:24.116Z,214.32
2023-02-06T01:28:50.967Z,204.00
2023-02-06T01:31:20.900Z,215.07
2023-02-06T01:33:48.821Z,215.45
2023-02-06T01:36:16.469Z,216.30
2023-02-06T01:38:43.355Z,219.65
2023-02-06T01:41:10.724Z,223.82
2023-02-06T01:43:40.381Z,219.68
2023-02-06T01:46:07.340Z,227.60
2023-02-06T01:48:50.083Z,222.68
2023-02-06T01:51:22.932Z,228.07
2023-02-06T01:53:55.726Z,228.80
2023-02-06T01:56:23.606Z,227.20
2023-02-06T01:58:53.093Z,227.20
2023-02-06T02:01:20.080Z,225.18
2023-02-06T02:03:48.921Z,230.20
2023-02-06T02:06:18.891Z,225.20
2023-02-06T02:08:47.273Z,224.65
2023-02-06T02:13:43.053Z,227.38
2023-02-06T02:16:20.521Z,230.27
2023-02-06T02:18:59.560Z,225.50
2023-02-06T02:21:28.942Z,222.90
2023-02-06T02:24:05.878Z,222.32
2023-02-06T02:27:04.285Z,228.40
2023-02-06T02:29:37.135Z,224.43
2023-02-06T02:32:19.551Z,231.48
2023-02-06T02:35:00.515Z,227.80
2023-02-06T02:37:32.433Z,228.75
2023-02-06T02:39:58.853Z,230.07
2023-02-06T02:42:35.333Z,231.82
2023-02-06T02:45:14.057Z,233.60
2023-02-06T02:47:56.056Z,233.90
2023-02-06T02:50:23.052Z,232.50
2023-02-06T02:52:49.770Z,231.98
2023-02-06T02:55:22.331Z,229.63
2023-02-06T02:57:56.311Z,232.32
2023-02-06T03:00:24.091Z,231.68
2023-02-06T03:02:51.726Z,230.30
2023-02-06T03:05:20.727Z,230.95
2023-02-06T03:08:06.404Z,231.95
2023-02-06T03:10:41.139Z,234.45
2023-02-06T03:13:21.520Z,235.70
2023-02-06T03:15:59.153Z,233.05
2023-02-06T03:18:30.964Z,231.35
2023-02-06T03:20:59.033Z,236.55
2023-02-06T03:23:31.755Z,235.07
2023-02-06T03:26:00.719Z,238.77
2023-02-06T03:28:32.200Z,236.23
2023-02-06T03:31:00.094Z,242.07
2023-02-06T03:33:31.779Z,238.98
2023-02-06T03:35:58.945Z,239.60
2023-02-06T03:38:25.852Z,238.05
2023-02-06T03:40:53.410Z,241.98
2023-02-06T03:43:20.579Z,231.40
2023-02-06T03:45:50.559Z,234.10
2023-02-06T03:48:21.845Z,240.48
2023-02-06T03:50:50.196Z,239.30
2023-02-06T03:53:18.127Z,240.45
2023-02-06T03:55:46.077Z,242.77
2023-02-06T03:58:14.049Z,247.60
2023-02-06T04:00:42.293Z,247.07
2023-02-06T04:03:10.276Z,252.63
2023-02-06T04:05:37.737Z,249.30
2023-02-06T04:08:04.672Z,250.07
2023-02-06T04:10:31.357Z,253.18
2023-02-06T04:12:57.895Z,254.70
2023-02-06T04:15:24.480Z,256.42
2023-02-06T04:17:59.857Z,259.98
2023-02-06T04:20:27.353Z,262.20
2023-02-06T04:22:53.850Z,251.38
2023-02-06T04:25:20.364Z,246.63
2023-02-06T04:27:47.421Z,245.00
2023-02-06T04:30:14.186Z,246.57
2023-02-06T04:32:40.739Z,247.70
2023-02-06T04:35:07.558Z,246.82
2023-02-06T04:37:34.084Z,248.68
2023-02-06T04:40:00.584Z,256.20
2023-02-06T04:42:27.213Z,255.13
2023-02-06T04:44:53.724Z,257.92
2023-02-06T04:47:20.217Z,255.93
2023-02-06T04:49:46.707Z,258.05
2023-02-06T04:52:13.335Z,253.13
2023-02-06T04:54:39.848Z,255.02
2023-02-06T04:57:06.426Z,258.17
2023-02-06T04:59:32.920Z,254.75
2023-02-06T05:01:59.393Z,252.30
2023-02-06T05:04:25.909Z,253.43
2023-02-06T05:06:52.412Z,249.07
2023-02-06T05:09:18.946Z,249.98
2023-02-06T05:11:47.043Z,253.85
2023-02-06T05:14:13.548Z,254.07
2023-02-06T05:16:40.067Z,253.65
2023-02-06T05:19:06.531Z,257.23
2023-02-06T05:21:33.877Z,256.02
2023-02-06T05:24:00.409Z,253.25
2023-02-06T05:26:26.989Z,253.63
2023-02-06T05:28:53.460Z,255.27
2023-02-06T05:31:20.262Z,258.42
2023-02-06T05:33:51.146Z,255.10
2023-02-06T05:36:19.069Z,256.10
2023-02-06T05:38:45.624Z,252.48
2023-02-06T05:41:12.181Z,253.82
2023-02-06T05:43:38.774Z,256.85
2023-02-06T05:46:05.332Z,252.90
2023-02-06T05:48:34.396Z,251.20
2023-02-06T05:51:01.411Z,258.45
2023-02-06T05:53:28.089Z,253.68
2023-02-06T05:55:54.597Z,251.40
2023-02-06T05:58:21.216Z,253.75
2023-02-06T06:00:48.409Z,256.83
2023-02-06T06:03:14.905Z,253.80
2023-02-06T06:05:41.713Z,257.38
2023-02-06T06:08:08.295Z,256.73
2023-02-06T06:10:35.392Z,257.45
2023-02-06T06:13:01.990Z,255.80
2023-02-06T06:15:28.545Z,254.68
2023-02-06T06:17:55.351Z,259.30
2023-02-06T06:20:22.271Z,259.02
2023-02-06T06:22:48.778Z,259.38
2023-02-06T06:25:15.310Z,260.33
2023-02-06T06:27:42.040Z,258.98
2023-02-06T06:30:09.569Z,260.50
2023-02-06T06:32:36.672Z,264.25
2023-02-06T06:35:03.598Z,264.83
2023-02-06T06:37:40.476Z,264.70
2023-02-06T06:40:08.039Z,262.17
2023-02-06T06:42:34.582Z,262.08
2023-02-06T06:45:01.129Z,262.02
2023-02-06T06:47:27.941Z,262.67
2023-02-06T06:49:54.497Z,264.80
2023-02-06T06:52:25.277Z,263.05
2023-02-06T06:54:53.125Z,265.20
2023-02-06T06:57:20.679Z,265.08
2023-02-06T06:59:53.564Z,268.27
2023-02-06T07:02:20.520Z,265.23
2023-02-06T07:04:47.477Z,267.77
2023-02-06T07:07:14.028Z,264.30
2023-02-06T07:09:40.534Z,267.48
2023-02-06T07:12:07.174Z,264.95
2023-02-06T07:14:33.734Z,264.63
2023-02-06T07:17:01.606Z,267.95
2023-02-06T07:19:28.116Z,266.92
2023-02-06T07:21:54.663Z,265.80
2023-02-06T07:24:21.193Z,256.50
2023-02-06T07:26:48.241Z,262.35
2023-02-06T07:29:14.752Z,259.80
2023-02-06T07:31:41.432Z,262.92
2023-02-06T07:34:07.992Z,265.50
2023-02-06T07:36:34.680Z,260.98
2023-02-06T07:39:03.014Z,265.40
2023-02-06T07:41:29.532Z,261.00
2023-02-06T07:43:56.842Z,253.63
2023-02-06T07:46:23.618Z,249.77
2023-02-06T07:48:50.565Z,257.83
2023-02-06T07:51:17.159Z,259.85
2023-02-06T07:53:43.697Z,258.05
2023-02-06T07:56:19.048Z,262.80
2023-02-06T07:58:47.241Z,259.77
2023-02-06T08:01:13.809Z,249.18
2023-02-06T08:03:40.346Z,255.90
2023-02-06T08:06:11.571Z,263.35
2023-02-06T08:08:41.550Z,268.60
2023-02-06T08:11:10.833Z,271.88
2023-02-06T08:13:39.833Z,278.00
2023-02-06T08:16:08.229Z,278.98
2023-02-06T08:21:03.692Z,278.83
2023-02-06T08:23:30.365Z,282.60
2023-02-06T08:26:05.665Z,285.50
2023-02-06T08:28:32.347Z,284.95
2023-02-06T08:30:59.045Z,287.65
2023-02-06T08:33:25.772Z,284.15
2023-02-06T08:35:52.478Z,285.10
2023-02-06T08:38:18.957Z,288.70
2023-02-06T08:40:45.547Z,287.65
2023-02-06T08:43:12.093Z,289.42
2023-02-06T08:45:38.645Z,289.73
2023-02-06T08:48:05.233Z,276.05
2023-02-06T08:50:31.793Z,283.58
2023-02-06T08:52:59.123Z,285.90
2023-02-06T08:55:31.675Z,287.23
2023-02-06T08:57:58.243Z,286.40
2023-02-06T09:00:24.806Z,287.70
2023-02-06T09:02:55.056Z,290.42
2023-02-06T09:05:22.423Z,288.23
2023-02-06T09:07:49.730Z,293.17
2023-02-06T09:10:27.118Z,291.15
2023-02-06T09:12:57.639Z,293.85
2023-02-06T09:15:24.322Z,297.30
2023-02-06T09:17:50.923Z,301.70
2023-02-06T09:20:17.987Z,299.13
2023-02-06T09:22:44.642Z,293.05
2023-02-06T09:25:11.337Z,298.35
2023-02-06T09:27:38.034Z,297.60
2023-02-06T09:30:05.966Z,305.90
2023-02-06T09:32:32.478Z,303.77
2023-02-06T09:34:59.034Z,297.63
2023-02-06T09:37:25.514Z,295.77
2023-02-06T09:39:52.069Z,299.70
2023-02-06T09:42:27.715Z,299.15
2023-02-06T09:45:03.121Z,301.35
2023-02-06T09:47:40.156Z,294.55
2023-02-06T09:50:13.650Z,298.73
2023-02-06T09:53:17.128Z,299.13
2023-02-06T09:55:54.724Z,300.23
2023-02-06T09:58:31.181Z,302.73
2023-02-06T10:01:03.781Z,305.63
2023-02-06T10:04:10.137Z,304.85
2023-02-06T10:06:46.168Z,301.65
2023-02-06T10:09:22.074Z,302.27
2023-02-06T10:12:06.185Z,296.02
2023-02-06T10:14:59.358Z,302.17
2023-02-06T10:17:39.941Z,300.58
2023-02-06T10:20:31.924Z,302.83
2023-02-06T10:23:16.069Z,299.70
2023-02-06T10:25:49.757Z,311.45
2023-02-06T10:28:27.228Z,302.15
2023-02-06T10:31:09.600Z,303.80
2023-02-06T10:33:45.531Z,301.50
2023-02-06T10:36:26.794Z,308.92
2023-02-06T10:39:20.855Z,306.58
2023-02-06T10:41:56.426Z,309.33
2023-02-06T10:44:51.141Z,308.52
2023-02-06T10:47:41.267Z,313.65
2023-02-06T10:50:34.456Z,312.77
2023-02-06T10:53:05.565Z,316.73
2023-02-06T10:55:41.620Z,316.27
2023-02-06T10:58:42.993Z,315.10
2023-02-06T11:01:25.043Z,318.25
2023-02-06T11:04:17.634Z,319.58
2023-02-06T11:06:46.789Z,314.83
2023-02-06T11:09:14.516Z,318.42
2023-02-06T11:11:46.042Z,321.00
2023-02-06T11:14:18.005Z,323.15
2023-02-06T11:16:44.752Z,331.77
2023-02-06T11:19:17.481Z,329.80
2023-02-06T11:21:43.974Z,329.38
2023-02-06T11:24:16.142Z,333.92
2023-02-06T11:26:47.157Z,325.15
2023-02-06T11:29:39.301Z,319.52
2023-02-06T11:32:07.609Z,310.30
2023-02-06T11:37:36.837Z,309.98
2023-02-06T11:40:18.952Z,310.73
2023-02-06T11:42:52.641Z,308.40
2023-02-06T11:45:33.082Z,308.65
2023-02-06T11:48:02.229Z,305.95
2023-02-06T11:50:37.230Z,307.48
2023-02-06T11:53:18.208Z,307.70
2023-02-06T11:55:46.740Z,308.90
2023-02-06T11:58:13.144Z,310.00
2023-02-06T12:00:51.945Z,307.20
2023-02-06T12:03:35.451Z,307.90
2023-02-06T12:06:20.243Z,309.50
2023-02-06T12:08:52.709Z,304.85
2023-02-06T12:11:33.296Z,308.27
2023-02-06T12:14:07.239Z,311.88
2023-02-06T12:16:36.689Z,314.65
2023-02-06T12:19:10.711Z,318.40
2023-02-06T12:21:57.279Z,315.35
2023-02-06T12:24:32.279Z,314.45
2023-02-06T12:27:05.741Z,312.45
2023-02-06T12:29:38.889Z,313.88
2023-02-06T12:32:18.299Z,316.20
2023-02-06T12:34:56.401Z,315.10
2023-02-06T12:37:40.225Z,316.45
2023-02-06T12:40:27.027Z,318.95
2023-02-06T12:43:08.170Z,318.25
2023-02-06T12:48:21.480Z,320.23
2023-02-06T12:51:09.984Z,319.35
2023-02-06T12:53:48.457Z,322.42
2023-02-06T12:56:23.355Z,322.08
2023-02-06T12:58:59.604Z,320.42
2023-02-06T13:02:00.571Z,322.50
2023-02-06T13:04:33.128Z,321.48
2023-02-06T13:07:06.408Z,322.42
2023-02-06T13:10:04.075Z,323.00
2023-02-06T13:12:31.542Z,322.48
2023-02-06T13:15:03.942Z,320.70
2023-02-06T13:17:44.847Z,319.85
2023-02-06T13:20:16.413Z,321.80
2023-02-06T13:23:15.974Z,319.20
2023-02-06T13:25:46.461Z,320.52
2023-02-06T13:28:22.120Z,328.67
2023-02-06T13:31:07.472Z,329.02
2023-02-06T13:33:44.079Z,331.77
2023-02-06T13:36:18.340Z,339.02
2023-02-06T13:38:44.984Z,335.08
2023-02-06T13:41:14.390Z,342.95
2023-02-06T13:43:51.660Z,343.63
2023-02-06T13:46:20.772Z,348.83
2023-02-06T13:48:53.149Z,350.73
2023-02-06T13:51:44.343Z,361.38
2023-02-06T13:54:26.748Z,369.05
2023-02-06T13:57:26.739Z,361.58
2023-02-06T13:59:53.375Z,357.70
2023-02-06T14:02:28.825Z,361.02
2023-02-06T14:04:58.588Z,355.13
2023-02-06T14:07:50.381Z,355.88
2023-02-06T14:10:48.083Z,357.55
2023-02-06T14:13:48.997Z,336.30
2023-02-06T14:16:28.096Z,342.75
2023-02-06T14:19:09.884Z,348.05
2023-02-06T14:21:40.735Z,368.45
2023-02-06T14:24:31.757Z,367.08
2023-02-06T14:27:20.075Z,360.75
2023-02-06T14:30:22.423Z,358.33
2023-02-06T14:32:54.267Z,360.38
2023-02-06T14:35:40.917Z,359.90
2023-02-06T14:38:45.430Z,361.95
2023-02-06T14:41:12.116Z,357.15
2023-02-06T14:43:41.154Z,354.52
2023-02-06T14:46:11.934Z,355.90
2023-02-06T14:48:44.647Z,352.05
2023-02-06T14:51:24.612Z,354.02
2023-02-06T14:53:57.617Z,351.55
2023-02-06T14:56:36.638Z,351.02
2023-02-06T14:59:12.364Z,352.90
2023-02-06T15:01:39.609Z,346.85
2023-02-06T15:04:12.048Z,349.00
2023-02-06T15:06:42.035Z,347.40
2023-02-06T15:09:08.563Z,347.15
2023-02-06T15:11:35.205Z,347.95
2023-02-06T15:14:04.670Z,350.05
2023-02-06T15:16:45.781Z,350.45
2023-02-06T15:21:41.103Z,350.63
2023-02-06T15:24:23.925Z,351.00
2023-02-06T15:27:01.105Z,351.23
2023-02-06T15:29:28.011Z,352.15
2023-02-06T15:32:00.685Z,349.25
2023-02-06T15:34:27.845Z,351.10
2023-02-06T15:36:54.757Z,350.75
2023-02-06T15:39:21.692Z,353.83
2023-02-06T15:41:51.723Z,352.05
2023-02-06T15:44:21.491Z,349.27
2023-02-06T15:46:49.441Z,349.15
2023-02-06T15:49:42.351Z,349.08
2023-02-06T15:52:10.244Z,348.67
2023-02-06T15:54:40.254Z,350.10
2023-02-06T15:57:28.762Z,351.13
2023-02-06T15:59:59.585Z,349.73
2023-02-06T16:02:32.690Z,347.52
2023-02-06T16:04:59.771Z,347.05
2023-02-06T16:07:28.072Z,347.05
2023-02-06T16:12:21.989Z,352.35
2023-02-06T16:15:00.029Z,347.48
2023-02-06T16:17:41.071Z,349.33
2023-02-06T16:20:27.488Z,346.92
2023-02-06T16:22:57.723Z,347.13
2023-02-06T16:25:30.239Z,347.48
2023-02-06T16:27:57.173Z,346.20
2023-02-06T16:30:30.446Z,349.38
2023-02-06T16:32:58.439Z,348.05
2023-02-06T16:35:25.056Z,351.25
2023-02-06T16:37:53.345Z,347.45
2023-02-06T16:42:47.674Z,346.92
2023-02-06T16:45:26.276Z,202.00
2023-02-06T16:47:54.936Z,162.10
2023-02-06T16:50:21.746Z,135.65
2023-02-06T16:52:54.080Z,110.43
2023-02-06T16:55:24.959Z,111.50
2023-02-06T16:57:58.791Z,100.15
2023-02-06T17:00:31.415Z,99.07
2023-02-06T17:03:06.570Z,93.15
2023-02-06T17:05:37.141Z,90.10
2023-02-06T17:08:13.179Z,85.30
2023-02-06T17:10:39.683Z,89.07
2023-02-06T17:13:06.253Z,206.40
2023-02-06T17:15:32.877Z,177.90
2023-02-06T17:17:59.504Z,132.60
2023-02-06T17:20:30.963Z,109.70
2023-02-06T17:22:57.480Z,115.68
2023-02-06T17:25:24.596Z,141.27
2023-02-06T17:27:52.238Z,114.25
2023-02-06T17:30:21.592Z,124.85
2023-02-06T17:32:48.578Z,110.63
2023-02-06T17:35:15.537Z,94.57
2023-02-06T17:37:42.618Z,174.65
2023-02-06T17:40:12.176Z,172.40
2023-02-06T17:42:39.027Z,150.60
2023-02-06T17:45:05.960Z,143.38
2023-02-06T17:47:32.618Z,162.98
2023-02-06T17:49:59.288Z,132.45
2023-02-06T17:52:26.064Z,133.40
2023-02-06T17:54:52.564Z,90.43
2023-02-06T17:57:19.307Z,89.18
2023-02-06T17:59:45.816Z,83.70
2023-02-06T18:02:14.149Z,78.60
2023-02-06T18:07:07.933Z,80.55
2023-02-06T18:09:34.756Z,98.65
2023-02-06T18:12:01.275Z,80.05
2023-02-06T18:14:27.796Z,70.55
2023-02-06T18:16:54.314Z,73.53
2023-02-06T18:19:24.736Z,80.32
2023-02-06T18:21:51.452Z,69.60
2023-02-06T18:24:17.951Z,76.40
2023-02-06T18:26:44.720Z,80.82
2023-02-06T18:29:11.233Z,83.97
2023-02-06T18:31:37.865Z,91.97
2023-02-06T18:34:07.908Z,85.30
2023-02-06T18:36:35.938Z,78.15
2023-02-06T18:39:02.558Z,79.45
2023-02-06T18:41:48.130Z,83.75
2023-02-06T18:44:14.718Z,72.82
2023-02-06T18:46:41.305Z,70.43
2023-02-06T18:49:07.887Z,70.28
2023-02-06T18:51:34.670Z,74.00
2023-02-06T18:54:01.314Z,67.35
2023-02-06T18:56:27.934Z,72.00
2023-02-06T18:58:55.063Z,66.60
2023-02-06T19:01:23.651Z,66.03
2023-02-06T19:03:51.022Z,67.20
2023-02-06T19:06:32.192Z,66.95
2023-02-06T19:08:59.170Z,71.47
2023-02-06T19:11:26.518Z,92.07
2023-02-06T19:13:53.526Z,83.43
2023-02-06T19:16:20.666Z,81.95
2023-02-06T19:18:48.938Z,77.93
2023-02-06T19:21:18.315Z,78.03
2023-02-06T19:23:46.309Z,79.28
2023-02-06T19:26:15.124Z,76.50
2023-02-06T19:28:42.745Z,83.38
2023-02-06T19:31:10.938Z,85.22
2023-02-06T19:33:38.796Z,199.45
2023-02-06T19:36:15.786Z,222.15
2023-02-06T19:38:42.883Z,216.93
2023-02-06T19:41:14.570Z,218.57
2023-02-06T19:43:42.521Z,216.55
2023-02-06T19:46:13.827Z,217.60
2023-02-06T19:48:45.578Z,216.20
2023-02-06T19:51:21.405Z,222.20
2023-02-06T19:53:49.406Z,314.75
2023-02-06T19:56:22.497Z,348.67
2023-02-06T19:58:56.532Z,406.88
2023-02-06T20:01:23.927Z,430.55
2023-02-06T20:03:50.686Z,435.05
2023-02-06T20:06:17.832Z,440.00
2023-02-06T20:08:45.999Z,437.08
2023-02-06T20:11:15.039Z,446.92
2023-02-06T20:13:41.810Z,447.90
2023-02-06T20:16:20.033Z,444.20
2023-02-06T20:18:46.596Z,447.75
2023-02-06T20:21:28.259Z,449.35
2023-02-06T20:23:55.792Z,444.65
2023-02-06T20:26:24.140Z,453.58
2023-02-06T20:28:50.782Z,457.45
2023-02-06T20:31:17.431Z,456.92
2023-02-06T20:33:44.326Z,458.73
2023-02-06T20:36:14.057Z,453.88
2023-02-06T20:38:41.171Z,453.05
2023-02-06T20:41:08.262Z,452.70
2023-02-06T20:43:36.241Z,454.08
2023-02-06T20:46:05.979Z,450.60
2023-02-06T20:48:33.850Z,449.40
2023-02-06T20:51:01.999Z,445.88
2023-02-06T20:53:29.474Z,457.70
2023-02-06T20:55:56.457Z,446.48
2023-02-06T20:58:23.227Z,452.38
2023-02-06T21:00:50.255Z,455.50
2023-02-06T21:03:16.903Z,448.08
2023-02-06T21:05:43.771Z,452.25
2023-02-06T21:08:10.605Z,447.65
2023-02-06T21:10:37.380Z,451.08
2023-02-06T21:13:04.018Z,442.42
2023-02-06T21:15:30.559Z,442.40
2023-02-06T21:17:58.237Z,442.13
2023-02-06T21:20:24.718Z,448.85
2023-02-06T21:22:52.829Z,445.08
2023-02-06T21:25:20.458Z,450.20
2023-02-06T21:27:47.068Z,443.90
2023-02-06T21:30:13.757Z,440.05
2023-02-06T21:32:40.319Z,438.80
2023-02-06T21:35:09.191Z,437.25
2023-02-06T21:37:35.940Z,439.58
2023-02-06T21:40:03.439Z,438.25
2023-02-06T21:42:29.962Z,441.15
2023-02-06T21:44:56.453Z,434.50
2023-02-06T21:47:22.962Z,441.10
2023-02-06T21:49:49.435Z,434.45
2023-02-06T21:52:15.949Z,436.23
2023-02-06T21:54:42.453Z,438.75
2023-02-06T21:57:08.959Z,437.13
2023-02-06T21:59:37.810Z,433.15
2023-02-06T22:02:04.821Z,429.33
2023-02-06T22:04:31.387Z,433.45
2023-02-06T22:06:57.942Z,433.23
2023-02-06T22:09:24.499Z,435.33
2023-02-06T22:11:51.030Z,434.33
2023-02-06T22:14:18.194Z,432.63
2023-02-06T22:16:46.832Z,429.15
2023-02-06T22:19:14.649Z,429.63
2023-02-06T22:21:41.849Z,433.10
2023-02-06T22:24:10.223Z,425.48
2023-02-06T22:29:08.925Z,423.27
2023-02-06T22:31:36.563Z,428.77
2023-02-06T22:34:03.297Z,422.52
2023-02-06T22:36:32.270Z,426.88
2023-02-06T22:39:10.182Z,422.77
2023-02-06T22:41:39.298Z,424.98
2023-02-06T22:44:05.813Z,424.20
2023-02-06T22:46:37.818Z,429.42
2023-02-06T22:49:06.365Z,420.00
2023-02-06T22:51:33.155Z,378.40
2023-02-06T22:54:00.522Z,372.77
2023-02-06T22:56:36.007Z,379.67
2023-02-06T22:59:05.475Z,373.83
2023-02-06T23:01:53.372Z,379.95
2023-02-06T23:04:22.311Z,379.63
2023-02-06T23:06:49.577Z,373.13
2023-02-06T23:09:18.691Z,378.42
2023-02-06T23:11:45.517Z,377.25
2023-02-06T23:14:13.486Z,374.30
2023-02-06T23:16:40.252Z,380.42
2023-02-06T23:19:07.168Z,375.75
2023-02-06T23:21:36.612Z,382.55
2023-02-06T23:24:04.933Z,380.58
2023-02-06T23:26:31.970Z,375.80
2023-02-06T23:29:00.257Z,369.92
2023-02-06T23:31:27.582Z,378.85
2023-02-06T23:33:54.521Z,377.05
2023-02-06T23:36:22.694Z,382.25
2023-02-06T23:38:49.503Z,378.77
2023-02-06T23:41:27.172Z,382.35
2023-02-06T23:43:57.977Z,385.92
2023-02-06T23:46:25.633Z,385.73
2023-02-06T23:48:52.864Z,381.02
2023-02-06T23:51:20.555Z,383.77
2023-02-06T23:53:48.062Z,383.15
2023-02-06T23:56:17.333Z,384.08
2023-02-06T23:58:44.282Z,385.05
